sensor_id;sensor_type;location;lat;lon;timestamp;pressure;altitude;pressure_sealevel;temperature;humidity
22031;BME280;11179;52.106;21.024;2022-08-27T00:01:44;100116.31;;;19.50;54.80
22031;BME280;11179;52.106;21.024;2022-08-27T00:04:10;100119.41;;;19.49;54.99
22031;BME280;11179;52.106;21.024;2022-08-27T00:06:36;100116.44;;;19.45;55.16
22031;BME280;11179;52.106;21.024;2022-08-27T00:09:02;100120.22;;;19.41;55.02
22031;BME280;11179;52.106;21.024;2022-08-27T00:11:29;100109.22;;;19.36;55.52
22031;BME280;11179;52.106;21.024;2022-08-27T00:13:55;100107.91;;;19.33;55.78
22031;BME280;11179;52.106;21.024;2022-08-27T00:16:20;100092.81;;;19.25;55.97
22031;BME280;11179;52.106;21.024;2022-08-27T00:18:47;100097.56;;;19.25;56.15
22031;BME280;11179;52.106;21.024;2022-08-27T00:21:12;100091.50;;;19.23;56.28
22031;BME280;11179;52.106;21.024;2022-08-27T00:23:38;100089.34;;;19.20;56.32
22031;BME280;11179;52.106;21.024;2022-08-27T00:26:05;100087.72;;;19.19;56.51
22031;BME280;11179;52.106;21.024;2022-08-27T00:28:31;100087.53;;;19.15;56.63
22031;BME280;11179;52.106;21.024;2022-08-27T00:30:57;100104.88;;;19.12;56.78
22031;BME280;11179;52.106;21.024;2022-08-27T00:33:22;100080.78;;;19.08;56.94
22031;BME280;11179;52.106;21.024;2022-08-27T00:35:48;100095.31;;;19.05;56.91
22031;BME280;11179;52.106;21.024;2022-08-27T00:38:14;100090.56;;;18.96;56.87
22031;BME280;11179;52.106;21.024;2022-08-27T00:40:40;100096.75;;;18.93;57.27
22031;BME280;11179;52.106;21.024;2022-08-27T00:43:06;100096.59;;;18.90;57.39
22031;BME280;11179;52.106;21.024;2022-08-27T00:45:36;100097.03;;;18.83;57.64
22031;BME280;11179;52.106;21.024;2022-08-27T00:48:03;100096.84;;;18.80;57.70
22031;BME280;11179;52.106;21.024;2022-08-27T00:50:52;100096.34;;;18.78;58.00
22031;BME280;11179;52.106;21.024;2022-08-27T00:53:22;100104.22;;;18.76;57.88
22031;BME280;11179;52.106;21.024;2022-08-27T00:55:53;100101.25;;;18.72;57.99
22031;BME280;11179;52.106;21.024;2022-08-27T00:58:27;100101.88;;;18.69;58.04
22031;BME280;11179;52.106;21.024;2022-08-27T01:00:54;100088.09;;;18.64;58.12
22031;BME280;11179;52.106;21.024;2022-08-27T01:03:20;100098.22;;;18.60;58.28
22031;BME280;11179;52.106;21.024;2022-08-27T01:05:47;100091.47;;;18.52;58.64
22031;BME280;11179;52.106;21.024;2022-08-27T01:08:19;100098.66;;;18.53;58.70
22031;BME280;11179;52.106;21.024;2022-08-27T01:10:45;100102.59;;;18.52;58.85
22031;BME280;11179;52.106;21.024;2022-08-27T01:13:13;100089.66;;;18.48;58.82
22031;BME280;11179;52.106;21.024;2022-08-27T01:15:40;100092.44;;;18.48;58.88
22031;BME280;11179;52.106;21.024;2022-08-27T01:18:07;100090.59;;;18.43;59.07
22031;BME280;11179;52.106;21.024;2022-08-27T01:23:34;100089.19;;;18.32;59.57
22031;BME280;11179;52.106;21.024;2022-08-27T01:26:02;100084.56;;;18.27;59.69
22031;BME280;11179;52.106;21.024;2022-08-27T01:28:31;100085.19;;;18.24;59.63
22031;BME280;11179;52.106;21.024;2022-08-27T01:30:56;100083.38;;;18.20;59.79
22031;BME280;11179;52.106;21.024;2022-08-27T01:33:22;100088.13;;;18.19;59.84
22031;BME280;11179;52.106;21.024;2022-08-27T01:35:49;100084.31;;;18.15;60.16
22031;BME280;11179;52.106;21.024;2022-08-27T01:38:16;100086.09;;;18.11;60.41
22031;BME280;11179;52.106;21.024;2022-08-27T01:40:42;100088.38;;;18.09;60.37
22031;BME280;11179;52.106;21.024;2022-08-27T01:43:08;100079.03;;;18.05;60.57
22031;BME280;11179;52.106;21.024;2022-08-27T01:45:37;100076.06;;;18.02;60.79
22031;BME280;11179;52.106;21.024;2022-08-27T01:48:04;100089.25;;;17.96;60.98
22031;BME280;11179;52.106;21.024;2022-08-27T01:50:35;100082.16;;;17.90;61.44
22031;BME280;11179;52.106;21.024;2022-08-27T01:53:03;100077.22;;;17.87;61.30
22031;BME280;11179;52.106;21.024;2022-08-27T01:55:29;100081.78;;;17.83;61.22
22031;BME280;11179;52.106;21.024;2022-08-27T01:57:54;100086.00;;;17.80;61.16
22031;BME280;11179;52.106;21.024;2022-08-27T02:00:24;100087.16;;;17.79;61.43
22031;BME280;11179;52.106;21.024;2022-08-27T02:02:50;100085.00;;;17.76;61.45
22031;BME280;11179;52.106;21.024;2022-08-27T02:05:16;100081.41;;;17.76;61.41
22031;BME280;11179;52.106;21.024;2022-08-27T02:07:42;100078.25;;;17.69;61.80
22031;BME280;11179;52.106;21.024;2022-08-27T02:10:10;100079.69;;;17.66;62.00
22031;BME280;11179;52.106;21.024;2022-08-27T02:12:36;100076.81;;;17.57;62.19
22031;BME280;11179;52.106;21.024;2022-08-27T02:15:04;100070.25;;;17.53;62.21
22031;BME280;11179;52.106;21.024;2022-08-27T02:17:29;100071.38;;;17.52;62.46
22031;BME280;11179;52.106;21.024;2022-08-27T02:19:55;100070.03;;;17.50;62.53
22031;BME280;11179;52.106;21.024;2022-08-27T02:22:21;100073.09;;;17.48;62.47
22031;BME280;11179;52.106;21.024;2022-08-27T02:24:46;100077.81;;;17.48;62.68
22031;BME280;11179;52.106;21.024;2022-08-27T02:27:12;100086.28;;;17.43;62.85
22031;BME280;11179;52.106;21.024;2022-08-27T02:29:38;100074.75;;;17.36;62.66
22031;BME280;11179;52.106;21.024;2022-08-27T02:32:04;100086.69;;;17.36;62.85
22031;BME280;11179;52.106;21.024;2022-08-27T02:34:29;100084.53;;;17.33;63.04
22031;BME280;11179;52.106;21.024;2022-08-27T02:36:54;100089.56;;;17.31;62.85
22031;BME280;11179;52.106;21.024;2022-08-27T02:39:20;100092.16;;;17.28;62.97
22031;BME280;11179;52.106;21.024;2022-08-27T02:41:46;100092.25;;;17.22;62.97
22031;BME280;11179;52.106;21.024;2022-08-27T02:44:13;100087.00;;;17.21;63.35
22031;BME280;11179;52.106;21.024;2022-08-27T02:46:38;100095.31;;;17.21;63.01
22031;BME280;11179;52.106;21.024;2022-08-27T02:49:04;100087.75;;;17.13;63.36
22031;BME280;11179;52.106;21.024;2022-08-27T02:51:29;100090.22;;;17.14;63.35
22031;BME280;11179;52.106;21.024;2022-08-27T02:53:55;100086.09;;;17.12;63.39
22031;BME280;11179;52.106;21.024;2022-08-27T02:56:20;100086.41;;;17.10;63.42
22031;BME280;11179;52.106;21.024;2022-08-27T02:58:46;100083.63;;;17.10;63.51
22031;BME280;11179;52.106;21.024;2022-08-27T03:01:11;100077.34;;;17.05;63.58
22031;BME280;11179;52.106;21.024;2022-08-27T03:03:37;100077.69;;;17.03;63.62
22031;BME280;11179;52.106;21.024;2022-08-27T03:06:03;100086.50;;;17.05;63.57
22031;BME280;11179;52.106;21.024;2022-08-27T03:08:28;100082.81;;;16.96;63.80
22031;BME280;11179;52.106;21.024;2022-08-27T03:10:54;100077.03;;;16.93;63.79
22031;BME280;11179;52.106;21.024;2022-08-27T03:13:21;100079.31;;;16.91;64.13
22031;BME280;11179;52.106;21.024;2022-08-27T03:15:47;100078.81;;;16.89;64.20
22031;BME280;11179;52.106;21.024;2022-08-27T03:18:12;100069.97;;;16.86;64.21
22031;BME280;11179;52.106;21.024;2022-08-27T03:20:50;100074.91;;;16.90;64.13
22031;BME280;11179;52.106;21.024;2022-08-27T03:23:18;100070.78;;;16.87;63.97
22031;BME280;11179;52.106;21.024;2022-08-27T03:25:49;100064.22;;;16.83;64.36
22031;BME280;11179;52.106;21.024;2022-08-27T03:28:19;100072.22;;;16.84;64.31
22031;BME280;11179;52.106;21.024;2022-08-27T03:30:50;100072.22;;;16.84;64.30
22031;BME280;11179;52.106;21.024;2022-08-27T03:33:17;100068.09;;;16.82;64.27
22031;BME280;11179;52.106;21.024;2022-08-27T03:35:44;100072.53;;;16.83;64.50
22031;BME280;11179;52.106;21.024;2022-08-27T03:38:10;100068.94;;;16.82;64.54
22031;BME280;11179;52.106;21.024;2022-08-27T03:40:35;100074.78;;;16.81;64.56
22031;BME280;11179;52.106;21.024;2022-08-27T03:43:00;100070.06;;;16.81;64.70
22031;BME280;11179;52.106;21.024;2022-08-27T03:45:26;100071.69;;;16.82;64.70
22031;BME280;11179;52.106;21.024;2022-08-27T03:47:51;100071.69;;;16.82;64.71
22031;BME280;11179;52.106;21.024;2022-08-27T03:50:17;100070.06;;;16.81;64.78
22031;BME280;11179;52.106;21.024;2022-08-27T03:52:42;100072.81;;;16.81;64.81
22031;BME280;11179;52.106;21.024;2022-08-27T03:55:08;100068.94;;;16.82;65.13
22031;BME280;11179;52.106;21.024;2022-08-27T03:57:34;100071.41;;;16.84;65.20
22031;BME280;11179;52.106;21.024;2022-08-27T03:59:59;100073.03;;;16.85;65.26
22031;BME280;11179;52.106;21.024;2022-08-27T04:02:25;100071.09;;;16.85;65.26
22031;BME280;11179;52.106;21.024;2022-08-27T04:04:51;100073.78;;;16.91;65.22
22031;BME280;11179;52.106;21.024;2022-08-27T04:07:16;100074.78;;;16.95;65.33
22031;BME280;11179;52.106;21.024;2022-08-27T04:09:41;100077.97;;;17.02;65.16
22031;BME280;11179;52.106;21.024;2022-08-27T04:12:07;100075.50;;;17.14;65.12
22031;BME280;11179;52.106;21.024;2022-08-27T04:14:33;100082.41;;;17.30;65.01
22031;BME280;11179;52.106;21.024;2022-08-27T04:16:58;100069.81;;;17.46;64.93
22031;BME280;11179;52.106;21.024;2022-08-27T04:19:25;100074.63;;;17.68;64.54
22031;BME280;11179;52.106;21.024;2022-08-27T04:22:05;100082.06;;;17.95;64.26
22031;BME280;11179;52.106;21.024;2022-08-27T04:24:34;100077.63;;;18.16;63.90
22031;BME280;11179;52.106;21.024;2022-08-27T04:27:00;100067.19;;;18.36;63.83
22031;BME280;11179;52.106;21.024;2022-08-27T04:29:26;100076.19;;;18.63;63.40
22031;BME280;11179;52.106;21.024;2022-08-27T04:31:52;100066.13;;;18.85;63.08
22031;BME280;11179;52.106;21.024;2022-08-27T04:34:18;100066.72;;;19.13;62.43
22031;BME280;11179;52.106;21.024;2022-08-27T04:36:44;100072.25;;;19.44;62.03
22031;BME280;11179;52.106;21.024;2022-08-27T04:39:11;100071.28;;;19.74;61.48
22031;BME280;11179;52.106;21.024;2022-08-27T04:41:36;100068.69;;;20.03;61.12
22031;BME280;11179;52.106;21.024;2022-08-27T04:44:05;100064.25;;;20.28;60.62
22031;BME280;11179;52.106;21.024;2022-08-27T04:46:34;100068.44;;;20.60;60.10
22031;BME280;11179;52.106;21.024;2022-08-27T04:49:06;100066.09;;;20.88;59.03
22031;BME280;11179;52.106;21.024;2022-08-27T04:51:32;100057.59;;;21.14;58.42
22031;BME280;11179;52.106;21.024;2022-08-27T04:54:00;100066.25;;;21.51;57.94
22031;BME280;11179;52.106;21.024;2022-08-27T04:56:27;100062.59;;;21.79;57.18
22031;BME280;11179;52.106;21.024;2022-08-27T04:58:53;100066.72;;;22.15;56.60
22031;BME280;11179;52.106;21.024;2022-08-27T05:01:21;100065.25;;;22.50;55.51
22031;BME280;11179;52.106;21.024;2022-08-27T05:03:47;100061.81;;;22.78;54.81
22031;BME280;11179;52.106;21.024;2022-08-27T05:06:12;100063.28;;;22.96;54.56
22031;BME280;11179;52.106;21.024;2022-08-27T05:08:38;100073.19;;;23.06;54.71
22031;BME280;11179;52.106;21.024;2022-08-27T05:11:09;100074.25;;;23.26;54.51
22031;BME280;11179;52.106;21.024;2022-08-27T05:13:37;100068.13;;;23.60;53.88
22031;BME280;11179;52.106;21.024;2022-08-27T05:16:05;100076.13;;;23.98;52.74
22031;BME280;11179;52.106;21.024;2022-08-27T05:18:32;100074.75;;;24.32;52.22
22031;BME280;11179;52.106;21.024;2022-08-27T05:20:57;100069.13;;;24.60;51.18
22031;BME280;11179;52.106;21.024;2022-08-27T05:23:23;100066.31;;;24.91;50.79
22031;BME280;11179;52.106;21.024;2022-08-27T05:25:50;100063.72;;;25.14;50.42
22031;BME280;11179;52.106;21.024;2022-08-27T05:28:17;100063.75;;;25.49;49.52
22031;BME280;11179;52.106;21.024;2022-08-27T05:30:47;100060.22;;;25.87;48.61
22031;BME280;11179;52.106;21.024;2022-08-27T05:33:16;100050.97;;;26.06;48.14
22031;BME280;11179;52.106;21.024;2022-08-27T05:35:55;100058.81;;;26.16;47.18
22031;BME280;11179;52.106;21.024;2022-08-27T05:38:22;100067.63;;;26.15;47.48
22031;BME280;11179;52.106;21.024;2022-08-27T05:40:49;100064.41;;;26.32;47.19
22031;BME280;11179;52.106;21.024;2022-08-27T05:43:16;100065.06;;;26.45;46.52
22031;BME280;11179;52.106;21.024;2022-08-27T05:45:46;100071.81;;;26.21;45.77
22031;BME280;11179;52.106;21.024;2022-08-27T05:48:15;100068.25;;;26.43;45.87
22031;BME280;11179;52.106;21.024;2022-08-27T05:50:42;100075.28;;;26.76;45.05
22031;BME280;11179;52.106;21.024;2022-08-27T05:53:10;100066.88;;;26.98;44.66
22031;BME280;11179;52.106;21.024;2022-08-27T05:55:37;100075.38;;;27.25;44.13
22031;BME280;11179;52.106;21.024;2022-08-27T05:58:04;100075.06;;;27.56;43.46
22031;BME280;11179;52.106;21.024;2022-08-27T06:00:29;100078.25;;;27.81;43.29
22031;BME280;11179;52.106;21.024;2022-08-27T06:03:13;100068.66;;;28.16;43.12
22031;BME280;11179;52.106;21.024;2022-08-27T06:05:38;100071.34;;;28.38;42.19
22031;BME280;11179;52.106;21.024;2022-08-27T06:08:03;100071.06;;;28.47;41.57
22031;BME280;11179;52.106;21.024;2022-08-27T06:10:29;100066.84;;;28.00;41.64
22031;BME280;11179;52.106;21.024;2022-08-27T06:12:54;100064.53;;;28.09;41.86
22031;BME280;11179;52.106;21.024;2022-08-27T06:15:20;100060.34;;;27.96;41.23
22031;BME280;11179;52.106;21.024;2022-08-27T06:17:45;100064.59;;;28.13;41.62
22031;BME280;11179;52.106;21.024;2022-08-27T06:20:10;100061.72;;;28.09;41.11
22031;BME280;11179;52.106;21.024;2022-08-27T06:22:36;100058.38;;;28.00;40.64
22031;BME280;11179;52.106;21.024;2022-08-27T06:25:02;100055.53;;;28.30;40.93
22031;BME280;11179;52.106;21.024;2022-08-27T06:27:28;100061.91;;;28.98;39.88
22031;BME280;11179;52.106;21.024;2022-08-27T06:29:54;100060.28;;;29.48;39.32
22031;BME280;11179;52.106;21.024;2022-08-27T06:32:19;100072.28;;;29.89;38.42
22031;BME280;11179;52.106;21.024;2022-08-27T06:34:45;100067.94;;;30.09;37.65
22031;BME280;11179;52.106;21.024;2022-08-27T06:37:11;100071.25;;;30.18;37.41
22031;BME280;11179;52.106;21.024;2022-08-27T06:39:37;100073.16;;;30.00;37.45
22031;BME280;11179;52.106;21.024;2022-08-27T06:42:04;100072.66;;;29.84;37.22
22031;BME280;11179;52.106;21.024;2022-08-27T06:44:30;100073.13;;;29.93;37.51
22031;BME280;11179;52.106;21.024;2022-08-27T06:46:57;100080.06;;;30.10;36.75
22031;BME280;11179;52.106;21.024;2022-08-27T06:49:23;100076.59;;;30.52;36.87
22031;BME280;11179;52.106;21.024;2022-08-27T06:51:48;100072.56;;;30.46;35.88
22031;BME280;11179;52.106;21.024;2022-08-27T06:54:15;100074.59;;;30.56;36.15
22031;BME280;11179;52.106;21.024;2022-08-27T06:56:41;100066.53;;;30.58;35.87
22031;BME280;11179;52.106;21.024;2022-08-27T06:59:09;100068.47;;;30.33;35.91
22031;BME280;11179;52.106;21.024;2022-08-27T07:01:38;100060.66;;;30.05;36.11
22031;BME280;11179;52.106;21.024;2022-08-27T07:04:09;100065.91;;;30.10;36.57
22031;BME280;11179;52.106;21.024;2022-08-27T07:06:35;100069.75;;;30.60;35.85
22031;BME280;11179;52.106;21.024;2022-08-27T07:09:02;100075.44;;;30.71;34.96
22031;BME280;11179;52.106;21.024;2022-08-27T07:11:28;100071.47;;;30.97;35.24
22031;BME280;11179;52.106;21.024;2022-08-27T07:13:56;100059.31;;;30.96;35.22
22031;BME280;11179;52.106;21.024;2022-08-27T07:16:23;100062.16;;;31.42;34.69
22031;BME280;11179;52.106;21.024;2022-08-27T07:18:50;100064.56;;;31.69;34.12
22031;BME280;11179;52.106;21.024;2022-08-27T07:21:16;100062.91;;;31.71;34.43
22031;BME280;11179;52.106;21.024;2022-08-27T07:23:44;100057.56;;;31.98;34.29
22031;BME280;11179;52.106;21.024;2022-08-27T07:26:11;100056.66;;;32.33;33.04
22031;BME280;11179;52.106;21.024;2022-08-27T07:28:38;100053.81;;;32.22;32.89
22031;BME280;11179;52.106;21.024;2022-08-27T07:31:05;100047.31;;;32.33;32.99
22031;BME280;11179;52.106;21.024;2022-08-27T07:33:33;100056.16;;;32.49;32.54
22031;BME280;11179;52.106;21.024;2022-08-27T07:35:59;100050.22;;;32.15;32.44
22031;BME280;11179;52.106;21.024;2022-08-27T07:38:24;100057.56;;;31.98;32.73
22031;BME280;11179;52.106;21.024;2022-08-27T07:40:49;100056.69;;;32.19;33.01
22031;BME280;11179;52.106;21.024;2022-08-27T07:43:16;100052.19;;;32.36;33.07
22031;BME280;11179;52.106;21.024;2022-08-27T07:46:01;100046.28;;;32.67;32.42
22031;BME280;11179;52.106;21.024;2022-08-27T07:48:26;100054.13;;;33.08;31.74
22031;BME280;11179;52.106;21.024;2022-08-27T07:50:52;100048.59;;;33.42;31.31
22031;BME280;11179;52.106;21.024;2022-08-27T07:53:19;100054.84;;;33.64;31.52
22031;BME280;11179;52.106;21.024;2022-08-27T07:55:45;100047.25;;;33.91;30.69
22031;BME280;11179;52.106;21.024;2022-08-27T07:58:11;100054.25;;;33.83;30.63
22031;BME280;11179;52.106;21.024;2022-08-27T08:00:40;100047.94;;;33.65;30.43
22031;BME280;11179;52.106;21.024;2022-08-27T08:03:06;100049.22;;;33.57;31.10
22031;BME280;11179;52.106;21.024;2022-08-27T08:05:31;100049.19;;;33.60;30.33
22031;BME280;11179;52.106;21.024;2022-08-27T08:07:57;100043.72;;;33.80;29.99
22031;BME280;11179;52.106;21.024;2022-08-27T08:10:22;100045.03;;;34.06;30.05
22031;BME280;11179;52.106;21.024;2022-08-27T08:12:48;100039.91;;;33.94;29.22
22031;BME280;11179;52.106;21.024;2022-08-27T08:15:14;100043.19;;;33.89;29.38
22031;BME280;11179;52.106;21.024;2022-08-27T08:17:41;100046.69;;;33.66;29.88
22031;BME280;11179;52.106;21.024;2022-08-27T08:20:07;100047.25;;;33.50;29.86
22031;BME280;11179;52.106;21.024;2022-08-27T08:22:34;100046.03;;;33.51;29.03
22031;BME280;11179;52.106;21.024;2022-08-27T08:24:59;100050.53;;;33.49;28.11
22031;BME280;11179;52.106;21.024;2022-08-27T08:27:25;100050.00;;;33.61;27.29
22031;BME280;11179;52.106;21.024;2022-08-27T08:29:50;100047.91;;;33.68;27.46
22031;BME280;11179;52.106;21.024;2022-08-27T08:32:16;100039.69;;;33.74;27.71
22031;BME280;11179;52.106;21.024;2022-08-27T08:34:42;100044.81;;;33.90;27.48
22031;BME280;11179;52.106;21.024;2022-08-27T08:37:09;100047.00;;;34.09;27.73
22031;BME280;11179;52.106;21.024;2022-08-27T08:39:36;100057.78;;;34.28;27.59
22031;BME280;11179;52.106;21.024;2022-08-27T08:42:03;100051.38;;;33.83;26.84
22031;BME280;11179;52.106;21.024;2022-08-27T08:44:42;100058.94;;;33.59;27.23
22031;BME280;11179;52.106;21.024;2022-08-27T08:47:20;100047.69;;;33.86;27.51
22031;BME280;11179;52.106;21.024;2022-08-27T08:55:09;100053.94;;;33.70;28.28
22031;BME280;11179;52.106;21.024;2022-08-27T08:57:42;100055.66;;;33.16;28.68
22031;BME280;11179;52.106;21.024;2022-08-27T09:00:11;100041.94;;;33.08;29.47
22031;BME280;11179;52.106;21.024;2022-08-27T09:02:38;100054.63;;;33.44;28.80
22031;BME280;11179;52.106;21.024;2022-08-27T09:05:06;100052.03;;;33.16;28.99
22031;BME280;11179;52.106;21.024;2022-08-27T09:07:36;100047.09;;;33.27;28.20
22031;BME280;11179;52.106;21.024;2022-08-27T09:10:16;100047.03;;;33.71;28.66
22031;BME280;11179;52.106;21.024;2022-08-27T09:12:43;100045.53;;;33.97;28.47
22031;BME280;11179;52.106;21.024;2022-08-27T09:15:15;100044.47;;;33.84;27.75
22031;BME280;11179;52.106;21.024;2022-08-27T09:17:43;100046.59;;;33.73;27.92
22031;BME280;11179;52.106;21.024;2022-08-27T09:20:11;100046.75;;;33.59;27.85
22031;BME280;11179;52.106;21.024;2022-08-27T09:22:55;100040.31;;;33.55;28.13
22031;BME280;11179;52.106;21.024;2022-08-27T09:25:31;100047.00;;;33.34;28.11
22031;BME280;11179;52.106;21.024;2022-08-27T09:28:05;100040.75;;;33.50;28.50
22031;BME280;11179;52.106;21.024;2022-08-27T09:30:39;100041.13;;;33.93;28.09
22031;BME280;11179;52.106;21.024;2022-08-27T09:33:06;100046.63;;;34.41;27.37
22031;BME280;11179;52.106;21.024;2022-08-27T09:35:49;100029.78;;;34.20;27.43
22031;BME280;11179;52.106;21.024;2022-08-27T09:38:27;100037.59;;;34.46;27.09
22031;BME280;11179;52.106;21.024;2022-08-27T09:40:55;100036.06;;;34.65;26.88
22031;BME280;11179;52.106;21.024;2022-08-27T09:43:24;100031.31;;;34.85;27.33
22031;BME280;11179;52.106;21.024;2022-08-27T09:46:04;100029.47;;;34.75;26.61
22031;BME280;11179;52.106;21.024;2022-08-27T09:48:34;100023.81;;;34.71;26.73
22031;BME280;11179;52.106;21.024;2022-08-27T09:51:12;100027.53;;;34.65;26.62
22031;BME280;11179;52.106;21.024;2022-08-27T09:53:48;100027.22;;;34.59;26.56
22031;BME280;11179;52.106;21.024;2022-08-27T09:56:25;100036.19;;;34.58;25.72
22031;BME280;11179;52.106;21.024;2022-08-27T09:58:59;100015.75;;;34.63;25.57
22031;BME280;11179;52.106;21.024;2022-08-27T10:01:28;100017.25;;;34.74;26.23
22031;BME280;11179;52.106;21.024;2022-08-27T10:04:09;100021.53;;;34.86;26.92
22031;BME280;11179;52.106;21.024;2022-08-27T10:06:35;100025.91;;;34.64;26.17
22031;BME280;11179;52.106;21.024;2022-08-27T10:09:12;100023.22;;;34.26;26.33
22031;BME280;11179;52.106;21.024;2022-08-27T10:11:52;100021.75;;;34.11;26.70
22031;BME280;11179;52.106;21.024;2022-08-27T10:14:31;100019.66;;;34.15;26.06
22031;BME280;11179;52.106;21.024;2022-08-27T10:22:31;100007.41;;;33.88;24.97
22031;BME280;11179;52.106;21.024;2022-08-27T10:27:57;100014.53;;;34.03;25.67
22031;BME280;11179;52.106;21.024;2022-08-27T10:30:32;100002.09;;;33.90;24.84
22031;BME280;11179;52.106;21.024;2022-08-27T10:33:13;100014.91;;;33.75;25.35
22031;BME280;11179;52.106;21.024;2022-08-27T10:35:45;100007.78;;;33.90;26.14
22031;BME280;11179;52.106;21.024;2022-08-27T10:38:41;100009.69;;;34.00;24.88
22031;BME280;11179;52.106;21.024;2022-08-27T10:41:23;100002.25;;;33.79;24.62
22031;BME280;11179;52.106;21.024;2022-08-27T10:44:08;99996.94;;;33.81;24.43
22031;BME280;11179;52.106;21.024;2022-08-27T10:52:20;99995.72;;;34.09;23.84
22031;BME280;11179;52.106;21.024;2022-08-27T11:00:06;100002.25;;;33.38;23.08
22031;BME280;11179;52.106;21.024;2022-08-27T11:02:41;100000.72;;;32.82;23.62
22031;BME280;11179;52.106;21.024;2022-08-27T11:05:17;100001.84;;;32.91;23.38
22031;BME280;11179;52.106;21.024;2022-08-27T11:08:05;99997.66;;;33.07;23.35
22031;BME280;11179;52.106;21.024;2022-08-27T11:10:44;99986.94;;;32.77;24.06
22031;BME280;11179;52.106;21.024;2022-08-27T11:13:19;99993.28;;;32.40;25.04
22031;BME280;11179;52.106;21.024;2022-08-27T11:15:50;99992.53;;;32.36;25.34
22031;BME280;11179;52.106;21.024;2022-08-27T11:18:41;99995.41;;;32.21;25.20
22031;BME280;11179;52.106;21.024;2022-08-27T11:21:13;99989.41;;;32.09;25.38
22031;BME280;11179;52.106;21.024;2022-08-27T11:26:30;99984.81;;;32.33;25.86
22031;BME280;11179;52.106;21.024;2022-08-27T11:28:59;99990.91;;;32.31;25.65
22031;BME280;11179;52.106;21.024;2022-08-27T11:31:36;99991.72;;;32.31;26.43
22031;BME280;11179;52.106;21.024;2022-08-27T11:34:17;99984.88;;;32.15;26.43
22031;BME280;11179;52.106;21.024;2022-08-27T11:37:10;99985.28;;;32.13;25.95
22031;BME280;11179;52.106;21.024;2022-08-27T11:42:48;99990.16;;;32.16;25.33
22031;BME280;11179;52.106;21.024;2022-08-27T11:51:03;99988.59;;;32.01;26.46
22031;BME280;11179;52.106;21.024;2022-08-27T11:53:42;99997.59;;;31.85;26.60
22031;BME280;11179;52.106;21.024;2022-08-27T11:58:52;99987.03;;;31.93;26.79
22031;BME280;11179;52.106;21.024;2022-08-27T12:01:29;99980.06;;;32.05;26.15
22031;BME280;11179;52.106;21.024;2022-08-27T12:04:34;99978.75;;;32.27;25.91
22031;BME280;11179;52.106;21.024;2022-08-27T12:09:56;99983.59;;;32.34;26.64
22031;BME280;11179;52.106;21.024;2022-08-27T12:12:43;99970.63;;;32.33;26.07
22031;BME280;11179;52.106;21.024;2022-08-27T12:15:20;99980.69;;;32.41;26.67
22031;BME280;11179;52.106;21.024;2022-08-27T12:18:05;99964.84;;;32.43;26.89
22031;BME280;11179;52.106;21.024;2022-08-27T12:20:45;99969.78;;;32.36;25.95
22031;BME280;11179;52.106;21.024;2022-08-27T12:23:37;99975.00;;;32.41;25.98
22031;BME280;11179;52.106;21.024;2022-08-27T12:31:48;99955.09;;;32.44;24.76
22031;BME280;11179;52.106;21.024;2022-08-27T12:34:18;99962.81;;;32.44;24.65
22031;BME280;11179;52.106;21.024;2022-08-27T12:36:47;99973.78;;;32.45;24.88
22031;BME280;11179;52.106;21.024;2022-08-27T12:39:16;99958.03;;;32.34;24.56
22031;BME280;11179;52.106;21.024;2022-08-27T12:41:47;99956.00;;;32.34;23.97
22031;BME280;11179;52.106;21.024;2022-08-27T12:44:14;99963.63;;;32.44;23.54
22031;BME280;11179;52.106;21.024;2022-08-27T12:47:02;99954.28;;;32.44;23.23
22031;BME280;11179;52.106;21.024;2022-08-27T12:49:40;99963.31;;;32.31;23.09
22031;BME280;11179;52.106;21.024;2022-08-27T12:52:44;99960.94;;;32.16;23.64
22031;BME280;11179;52.106;21.024;2022-08-27T13:01:02;99959.19;;;32.36;23.18
22031;BME280;11179;52.106;21.024;2022-08-27T13:03:37;99954.31;;;32.37;22.37
22031;BME280;11179;52.106;21.024;2022-08-27T13:06:16;99958.47;;;32.28;22.35
22031;BME280;11179;52.106;21.024;2022-08-27T13:08:42;99950.38;;;32.16;22.81
22031;BME280;11179;52.106;21.024;2022-08-27T13:11:18;99949.66;;;32.05;22.82
22031;BME280;11179;52.106;21.024;2022-08-27T13:13:46;99941.59;;;31.93;23.39
22031;BME280;11179;52.106;21.024;2022-08-27T13:16:12;99946.81;;;32.05;23.63
22031;BME280;11179;52.106;21.024;2022-08-27T13:18:39;99943.97;;;32.05;23.33
22031;BME280;11179;52.106;21.024;2022-08-27T13:21:13;99945.63;;;31.99;23.28
22031;BME280;11179;52.106;21.024;2022-08-27T13:23:44;99944.94;;;31.77;22.60
22031;BME280;11179;52.106;21.024;2022-08-27T13:26:21;99939.66;;;31.76;22.66
22031;BME280;11179;52.106;21.024;2022-08-27T13:28:47;99944.88;;;31.88;23.15
22031;BME280;11179;52.106;21.024;2022-08-27T13:31:14;99954.53;;;32.01;23.30
22031;BME280;11179;52.106;21.024;2022-08-27T13:33:41;99948.03;;;32.04;23.01
22031;BME280;11179;52.106;21.024;2022-08-27T13:36:07;99949.66;;;32.02;23.03
22031;BME280;11179;52.106;21.024;2022-08-27T13:38:40;99954.19;;;31.92;23.33
22031;BME280;11179;52.106;21.024;2022-08-27T13:41:09;99950.59;;;31.81;23.27
22031;BME280;11179;52.106;21.024;2022-08-27T13:43:43;99951.41;;;31.78;23.74
22031;BME280;11179;52.106;21.024;2022-08-27T13:46:16;99950.59;;;31.70;23.66
22031;BME280;11179;52.106;21.024;2022-08-27T13:48:44;99957.13;;;31.60;23.30
22031;BME280;11179;52.106;21.024;2022-08-27T13:51:12;99949.88;;;31.48;23.43